Time,TemperatureF,DewpointF,PressureIn,WindDirection,WindDirectionDegrees,WindSpeedMPH,WindSpeedGustMPH,Humidity,HourlyPrecipIn,Conditions,Clouds,dailyrainin,SoftwareType,DateUTC
2013-12-01 00:00:00,54.0,-99.9,-100.00,WSW,248,1.0,2.0,-999,-99.99,,,-99.99,,2013-12-01 08:00:00,
2013-12-01 00:52:00,54.0,-99.9,-100.00,WSW,248,1.0,2.0,-999,-99.99,,,-99.99,,2013-12-01 08:52:00,
2013-12-01 01:22:00,54.0,-99.9,-100.00,West,267,1.0,3.0,-999,-99.99,,,-99.99,,2013-12-01 09:22:00,
2013-12-01 01:30:00,54.0,-99.9,-100.00,West,273,2.0,2.0,-999,-99.99,,,-99.99,,2013-12-01 09:30:00,
2013-12-01 01:33:00,54.0,-99.9,-100.00,West,267,1.0,3.0,-999,-99.99,,,-99.99,,2013-12-01 09:33:00,
2013-12-01 02:10:00,53.0,-99.9,-100.00,West,259,2.0,3.0,-999,-99.99,,,-99.99,,2013-12-01 10:10:00,
2013-12-01 02:22:00,54.0,-99.9,-100.00,West,273,2.0,2.0,-999,-99.99,,,-99.99,,2013-12-01 10:22:00,
2013-12-01 02:53:00,53.0,-99.9,-100.00,West,259,2.0,3.0,-999,-99.99,,,-99.99,,2013-12-01 10:53:00,
2013-12-01 03:02:00,53.0,-99.9,-100.00,West,259,2.0,3.0,-999,-99.99,,,-99.99,,2013-12-01 11:02:00,
2013-12-01 03:22:00,52.0,-99.9,-100.00,SW,230,1.0,2.0,-999,-99.99,,,-99.99,,2013-12-01 11:22:00,
2013-12-01 03:42:00,52.0,-99.9,-100.00,NW,309,5.0,5.0,-999,-99.99,,,-99.99,,2013-12-01 11:42:00,
2013-12-01 03:52:00,52.0,-99.9,-100.00,NW,309,5.0,5.0,-999,-99.99,,,-99.99,,2013-12-01 11:52:00,
2013-12-01 05:11:00,51.0,-99.9,-100.00,West,261,2.0,2.0,-999,-99.99,,,-99.99,,2013-12-01 13:11:00,
2013-12-01 07:40:00,63.0,-99.9,-100.00,ESE,105,2.0,6.0,-999,-99.99,,,-99.99,,2013-12-01 15:40:00,
2013-12-01 08:13:00,52.0,-99.9,-100.00,NNE,23,2.0,4.0,-999,-99.99,,,-99.99,,2013-12-01 16:13:00,
2013-12-01 08:23:00,63.0,-99.9,-100.00,ESE,105,2.0,6.0,-999,-99.99,,,-99.99,,2013-12-01 16:23:00,
2013-12-01 08:33:00,63.0,-99.9,-100.00,ESE,105,2.0,6.0,-999,-99.99,,,-99.99,,2013-12-01 16:33:00,
2013-12-01 09:50:00,75.0,-99.9,-100.00,South,173,2.0,8.0,-999,-99.99,,,-99.99,,2013-12-01 17:50:00,
2013-12-01 10:10:00,76.0,-99.9,-100.00,ESE,105,5.0,8.0,-999,-99.99,,,-99.99,,2013-12-01 18:10:00,
2013-12-01 10:22:00,74.0,-99.9,-100.00,SE,135,5.0,7.0,-999,-99.99,,,-99.99,,2013-12-01 18:22:00,
2013-12-01 10:42:00,75.0,-99.9,-100.00,South,173,2.0,8.0,-999,-99.99,,,-99.99,,2013-12-01 18:42:00,
2013-12-01 12:10:00,80.0,-99.9,-100.00,ENE,77,5.0,9.0,-999,-99.99,,,-99.99,,2013-12-01 20:10:00,
2013-12-01 12:11:00,78.0,-99.9,-100.00,SE,141,2.0,8.0,-999,-99.99,,,-99.99,,2013-12-01 20:11:00,
2013-12-01 12:42:00,79.0,-99.9,-100.00,ESE,123,7.0,8.0,-999,-99.99,,,-99.99,,2013-12-01 20:42:00,
2013-12-01 12:52:00,80.0,-99.9,-100.00,ENE,77,5.0,9.0,-999,-99.99,,,-99.99,,2013-12-01 20:52:00,
2013-12-01 13:02:00,80.0,-99.9,-100.00,ENE,77,5.0,9.0,-999,-99.99,,,-99.99,,2013-12-01 21:02:00,
2013-12-01 14:30:00,80.0,-99.9,-100.00,ESE,105,6.0,12.0,-999,-99.99,,,-99.99,,2013-12-01 22:30:00,
2013-12-01 15:22:00,80.0,-99.9,-100.00,ESE,105,6.0,12.0,-999,-99.99,,,-99.99,,2013-12-01 23:22:00,
2013-12-01 18:20:00,70.0,-99.9,-100.00,ENE,68,7.0,7.0,-999,-99.99,,,-99.99,,2013-12-02 02:20:00,
2013-12-01 18:22:00,73.0,-99.9,-100.00,East,82,5.0,8.0,-999,-99.99,,,-99.99,,2013-12-02 02:22:00,
2013-12-01 18:32:00,73.0,-99.9,-100.00,East,82,5.0,8.0,-999,-99.99,,,-99.99,,2013-12-02 02:32:00,
2013-12-01 19:11:00,70.0,-99.9,-100.00,ENE,68,7.0,7.0,-999,-99.99,,,-99.99,,2013-12-02 03:11:00,
2013-12-01 23:12:00,62.0,-99.9,-100.00,WNW,282,0.0,6.0,-999,-99.99,,,-99.99,,2013-12-02 07:12:00,
2013-12-01 23:42:00,56.0,-99.9,-100.00,WSW,243,2.0,4.0,-999,-99.99,,,-99.99,,2013-12-02 07:42:00,
2013-12-01 23:52:00,56.0,-99.9,-100.00,WSW,243,2.0,4.0,-999,-99.99,,,-99.99,,2013-12-02 07:52:00,